Time;durP1;ratioP1;P1;durP2;ratioP2;P2;SDS_P1;SDS_P2;PMS_P1;PMS_P2;Temp;Humidity;BMP_temperature;BMP_pressure;BME280_temperature;BME280_humidity;BME280_pressure;Samples;Min_cycle;Max_cycle;Signal;HPM_P1;HPM_P2
2022/10/27 00:10:51;;;;;;;;;;;;;;;;;;;;;
2022/10/27 00:13:22;;;;;;;23.55;12.45;;;;;;;;;;5049118;28;20386;-77
2022/10/27 00:32:11;;;;;;;21.63;12.82;;;;;;;;;;5078456;28;20066;-81
2022/10/27 00:40:30;;;;;;;;;;;;;;;;;;;;;
2022/10/27 00:43:18;;;;;;;;;;;;;;;;;;;;;
2022/10/27 00:46:26;;;;;;;;;;;;;;;;;;;;;
2022/10/27 00:55:26;;;;;;;15.10;9.48;;;;;;;;;;5074203;23;20494;-80
2022/10/27 00:58:29;;;;;;;;;;;;;;;;;;;;;
2022/10/27 01:04:09;;;;;;;16.67;8.93;;;;;;;;;;5017465;28;20017;-79
2022/10/27 01:10:20;;;;;;;20.42;9.45;;;;;;;;;;5032288;28;20048;-75
2022/10/27 01:16:27;;;;;;;14.43;9.48;;;;;;;;;;5032301;28;20555;-78
2022/10/27 01:19:27;;;;;;;16.52;10.07;;;;;;;;;;4996792;28;20030;-77
2022/10/27 01:22:34;;;;;;;17.13;9.75;;;;;;;;;;4975645;28;20034;-77
2022/10/27 01:25:22;;;;;;;19.48;9.70;;;;;;;;;;4947767;29;20106;-79
2022/10/27 01:28:13;;;;;;;20.08;10.32;;;;;;;;;;4945407;29;20048;-77
2022/10/27 01:30:58;;;;;;;17.13;9.98;;;;;;;;;;4979663;28;20027;-76
2022/10/27 01:33:27;;;;;;;16.05;9.75;;;;;;;;;;4990304;28;20038;-76
2022/10/27 01:36:02;;;;;;;21.00;11.30;;;;;;;;;;5008589;28;20132;-76
2022/10/27 01:38:31;;;;;;;20.52;11.57;;;;;;;;;;5031200;28;20063;-78
2022/10/27 01:41:02;;;;;;;17.85;9.80;;;;;;;;;;5031999;28;20633;-77
2022/10/27 01:43:28;;;;;;;;;;;;;;;;;;5018010;28;20059;-77
2022/10/27 01:45:55;;;;;;;17.23;9.02;;;;;;;;;;5042133;28;19909;-77
2022/10/27 01:48:21;;;;;;;16.25;9.65;;;;;;;;;;5029524;28;20032;-77
2022/10/27 01:50:47;;;;;;;17.38;10.43;;;;;;;;;;5042537;28;20060;-77
2022/10/27 01:53:13;;;;;;;25.20;12.18;;;;;;;;;;5031465;28;20048;-77
2022/10/27 01:55:58;;;;;;;19.52;10.50;;;;;;;;;;5031631;28;20106;-77
2022/10/27 01:58:47;;;;;;;20.95;10.68;;;;;;;;;;5045582;28;20506;-77
2022/10/27 02:01:13;;;;;;;21.67;10.05;;;;;;;;;;5025833;28;20033;-76
2022/10/27 02:03:47;;;;;;;24.90;10.50;;;;;;;;;;5032346;28;20111;-79
2022/10/27 02:06:19;;;;;;;21.92;11.13;;;;;;;;;;5021470;28;20124;-79
2022/10/27 02:08:58;;;;;;;19.35;11.20;;;;;;;;;;5031078;28;20021;-77
2022/10/27 02:11:24;;;;;;;24.20;10.23;;;;;;;;;;5031382;28;20075;-80
2022/10/27 02:13:51;;;;;;;20.88;9.95;;;;;;;;;;5020272;28;20154;-78
2022/10/27 02:16:20;;;;;;;23.08;10.90;;;;;;;;;;5051319;28;20541;-77
2022/10/27 02:18:55;;;;;;;19.60;9.77;;;;;;;;;;5037309;28;20021;-77
2022/10/27 02:21:22;;;;;;;16.50;9.10;;;;;;;;;;5038037;28;20029;-76
2022/10/27 02:23:48;;;;;;;25.17;12.43;;;;;;;;;;5037974;28;20112;-77
2022/10/27 02:26:20;;;;;;;23.80;10.75;;;;;;;;;;5038616;28;20507;-78
2022/10/27 02:29:09;;;;;;;26.85;12.77;;;;;;;;;;5034424;28;20044;-81
2022/10/27 02:31:41;;;;;;;26.48;9.48;;;;;;;;;;5036195;28;20030;-79
2022/10/27 02:45:21;;;;;;;19.67;10.20;;;;;;;;;;5011923;28;20037;-78
2022/10/27 02:48:09;;;;;;;14.52;8.07;;;;;;;;;;4958499;28;20125;-82
2022/10/27 02:54:01;;;;;;;22.33;10.23;;;;;;;;;;5001783;28;20018;-81
2022/10/27 02:56:39;;;;;;;19.23;10.23;;;;;;;;;;5009981;28;20038;-81
2022/10/27 02:59:26;;;;;;;21.77;10.98;;;;;;;;;;5010816;28;20025;-78
2022/10/27 03:01:54;;;;;;;23.45;11.88;;;;;;;;;;5010989;28;20031;-78
2022/10/27 03:04:36;;;;;;;20.83;10.82;;;;;;;;;;5013144;28;20022;-78
2022/10/27 03:07:26;;;;;;;;;;;;;;;;;;;;;
2022/10/27 03:09:56;;;;;;;20.05;9.75;;;;;;;;;;4985479;28;20102;-79
2022/10/27 03:15:18;;;;;;;19.33;11.15;;;;;;;;;;5069816;22;20045;-79
2022/10/27 03:17:59;;;;;;;21.88;10.90;;;;;;;;;;5042076;28;20334;-78
2022/10/27 03:20:53;;;;;;;25.65;11.30;;;;;;;;;;5043974;28;20099;-82
2022/10/27 03:26:17;;;;;;;28.58;12.30;;;;;;;;;;5045692;28;20025;-78
2022/10/27 03:28:49;;;;;;;33.17;13.85;;;;;;;;;;5039139;28;20024;-78
2022/10/27 03:31:18;;;;;;;26.48;14.35;;;;;;;;;;5061734;28;20100;-78
2022/10/27 03:33:50;;;;;;;24.27;12.65;;;;;;;;;;5054085;28;20513;-78
2022/10/27 03:36:18;;;;;;;34.85;14.85;;;;;;;;;;5036710;28;20056;-78
2022/10/27 03:38:54;;;;;;;21.13;12.23;;;;;;;;;;5035365;28;20032;-78
2022/10/27 03:41:24;;;;;;;28.10;14.45;;;;;;;;;;5052900;28;20017;-77
2022/10/27 03:43:53;;;;;;;19.80;12.38;;;;;;;;;;5023167;28;20509;-78
2022/10/27 03:46:54;;;;;;;28.05;13.63;;;;;;;;;;5061684;28;20029;-79
2022/10/27 03:49:29;;;;;;;23.92;12.68;;;;;;;;;;5033088;28;20029;-80
2022/10/27 03:55:00;;;;;;;22.55;12.23;;;;;;;;;;5016338;28;20037;-78
2022/10/27 03:57:52;;;;;;;21.90;13.05;;;;;;;;;;5040807;28;20040;-79
2022/10/27 04:00:35;;;;;;;21.73;12.35;;;;;;;;;;5059911;28;20021;-79
2022/10/27 04:03:15;;;;;;;28.27;14.93;;;;;;;;;;5032120;28;20025;-78
2022/10/27 04:05:41;;;;;;;32.80;17.15;;;;;;;;;;5041080;28;20512;-76
2022/10/27 04:08:07;;;;;;;26.55;15.88;;;;;;;;;;5034836;28;20025;-76
2022/10/27 04:10:36;;;;;;;31.05;17.00;;;;;;;;;;5053342;28;20032;-72
2022/10/27 04:13:04;;;;;;;22.50;14.15;;;;;;;;;;5053143;28;20490;-76
2022/10/27 04:15:30;;;;;;;27.05;13.38;;;;;;;;;;5038567;28;20481;-76
2022/10/27 04:17:57;;;;;;;21.02;14.13;;;;;;;;;;5052427;28;20017;-78
2022/10/27 04:20:32;;;;;;;27.15;15.35;;;;;;;;;;5053173;28;20559;-78
2022/10/27 04:22:59;;;;;;;30.73;16.15;;;;;;;;;;5035589;28;20031;-77
2022/10/27 04:25:27;;;;;;;24.05;14.23;;;;;;;;;;5053590;28;20170;-78
2022/10/27 04:28:07;;;;;;;22.48;12.27;;;;;;;;;;5034323;28;20037;-76
2022/10/27 04:30:36;;;;;;;23.90;13.30;;;;;;;;;;5062604;28;20021;-77
2022/10/27 04:33:02;;;;;;;38.13;16.83;;;;;;;;;;5053269;28;20016;-76
2022/10/27 04:35:37;;;;;;;25.25;13.77;;;;;;;;;;5039537;28;20372;-77
2022/10/27 04:38:03;;;;;;;24.80;13.73;;;;;;;;;;5051190;28;20552;-80
2022/10/27 04:40:32;;;;;;;35.42;16.42;;;;;;;;;;5038466;28;20041;-77
2022/10/27 04:42:58;;;;;;;33.80;17.63;;;;;;;;;;5052997;28;20029;-77
2022/10/27 04:45:26;;;;;;;26.08;16.48;;;;;;;;;;5053028;28;20029;-77
2022/10/27 04:47:55;;;;;;;40.55;17.88;;;;;;;;;;5034882;28;20025;-77
2022/10/27 04:50:36;;;;;;;32.05;15.70;;;;;;;;;;5050792;28;20021;-78
2022/10/27 04:53:27;;;;;;;28.55;14.35;;;;;;;;;;5044649;28;20031;-77
2022/10/27 04:55:53;;;;;;;20.98;13.43;;;;;;;;;;5051934;28;20029;-77
2022/10/27 04:58:20;;;;;;;25.75;14.07;;;;;;;;;;5063046;28;20048;-78
2022/10/27 05:00:49;;;;;;;47.05;22.50;;;;;;;;;;5073625;28;20025;-79
2022/10/27 05:03:18;;;;;;;51.05;22.55;;;;;;;;;;5038420;28;20021;-77
2022/10/27 05:05:44;;;;;;;59.70;27.33;;;;;;;;;;5055698;28;20021;-77
2022/10/27 05:08:11;;;;;;;62.15;26.48;;;;;;;;;;5055727;28;20518;-79
2022/10/27 05:10:36;;;;;;;47.45;22.70;;;;;;;;;;5054167;28;20051;-76
2022/10/27 05:13:02;;;;;;;35.50;20.58;;;;;;;;;;5054473;28;20033;-80
2022/10/27 05:15:28;;;;;;;47.42;18.67;;;;;;;;;;5055542;28;20065;-79
2022/10/27 05:17:55;;;;;;;47.78;23.80;;;;;;;;;;5051172;28;20025;-80
2022/10/27 05:20:21;;;;;;;40.70;20.40;;;;;;;;;;5034089;28;20025;-78
2022/10/27 05:22:47;;;;;;;48.58;22.15;;;;;;;;;;5051959;28;20013;-77
2022/10/27 05:25:13;;;;;;;36.70;18.65;;;;;;;;;;5051835;28;20021;-77
2022/10/27 05:27:39;;;;;;;44.65;21.33;;;;;;;;;;5050928;28;20108;-77
2022/10/27 05:30:06;;;;;;;48.20;20.55;;;;;;;;;;5051541;28;20100;-77
2022/10/27 05:32:32;;;;;;;55.55;22.77;;;;;;;;;;5051805;28;20029;-77
2022/10/27 05:34:58;;;;;;;41.35;18.15;;;;;;;;;;5048443;28;20027;-78
2022/10/27 05:37:24;;;;;;;30.33;17.10;;;;;;;;;;5049455;28;20115;-78
2022/10/27 05:39:53;;;;;;;36.97;18.02;;;;;;;;;;5033468;28;20095;-75
2022/10/27 05:42:19;;;;;;;36.15;18.33;;;;;;;;;;5051305;28;20116;-78
2022/10/27 05:44:45;;;;;;;33.50;18.45;;;;;;;;;;5050864;28;20460;-77
2022/10/27 05:47:11;;;;;;;35.58;19.13;;;;;;;;;;5050986;28;20075;-77
2022/10/27 05:49:37;;;;;;;46.05;18.77;;;;;;;;;;5052229;28;20540;-77
2022/10/27 05:52:03;;;;;;;35.47;19.27;;;;;;;;;;5051589;28;20025;-74
2022/10/27 05:54:29;;;;;;;52.83;24.05;;;;;;;;;;5051922;28;20261;-77
2022/10/27 05:56:55;;;;;;;37.75;20.13;;;;;;;;;;5051615;28;20017;-77
2022/10/27 05:59:21;;;;;;;39.10;19.92;;;;;;;;;;5059634;28;20430;-78
2022/10/27 06:01:47;;;;;;;28.92;16.25;;;;;;;;;;5036687;28;20028;-77
2022/10/27 06:04:13;;;;;;;44.70;19.73;;;;;;;;;;5033978;28;20102;-78
2022/10/27 06:06:40;;;;;;;37.42;18.88;;;;;;;;;;5051143;28;20037;-78
2022/10/27 06:09:06;;;;;;;45.42;21.63;;;;;;;;;;5033003;28;20021;-78
2022/10/27 06:11:32;;;;;;;31.98;19.30;;;;;;;;;;5033469;28;20027;-74
2022/10/27 06:13:58;;;;;;;64.00;27.50;;;;;;;;;;5033492;28;20082;-77
2022/10/27 06:16:27;;;;;;;43.67;23.40;;;;;;;;;;5036147;28;20476;-78
2022/10/27 06:18:55;;;;;;;47.40;24.45;;;;;;;;;;5050407;28;20032;-75
2022/10/27 06:21:21;;;;;;;39.47;23.55;;;;;;;;;;5049453;28;20487;-78
2022/10/27 06:23:48;;;;;;;46.28;22.00;;;;;;;;;;5032713;28;20079;-78
2022/10/27 06:26:14;;;;;;;24.77;15.95;;;;;;;;;;5033472;28;20025;-76
2022/10/27 06:28:40;;;;;;;23.08;13.90;;;;;;;;;;5053370;28;20039;-78
2022/10/27 06:31:06;;;;;;;27.52;12.93;;;;;;;;;;5041777;28;20021;-76
2022/10/27 06:33:32;;;;;;;32.38;13.05;;;;;;;;;;5032391;28;20447;-78
2022/10/27 06:35:59;;;;;;;22.23;12.50;;;;;;;;;;5033032;28;20025;-78
2022/10/27 06:38:25;;;;;;;24.42;14.20;;;;;;;;;;5050301;28;20024;-77
2022/10/27 06:40:51;;;;;;;33.15;17.10;;;;;;;;;;5055409;28;20375;-77
2022/10/27 06:43:55;;;;;;;38.88;18.55;;;;;;;;;;5139279;23;20120;-77
2022/10/27 06:46:35;;;;;;;24.42;13.45;;;;;;;;;;4976852;28;20152;-78
2022/10/27 06:52:28;;;;;;;23.23;14.18;;;;;;;;;;5017407;28;20030;-78
2022/10/27 06:55:50;;;;;;;31.25;17.13;;;;;;;;;;5019475;28;20539;-77
2022/10/27 07:07:26;;;;;;;34.35;16.65;;;;;;;;;;5034322;28;20142;-78
2022/10/27 07:10:01;;;;;;;38.60;19.20;;;;;;;;;;5032926;28;20026;-81
2022/10/27 07:13:17;;;;;;;36.55;19.05;;;;;;;;;;5009337;28;20037;-79
2022/10/27 07:18:39;;;;;;;33.10;17.23;;;;;;;;;;5031874;28;20060;-76
2022/10/27 07:21:26;;;;;;;33.58;17.92;;;;;;;;;;5032852;28;20083;-80
2022/10/27 07:33:12;;;;;;;25.88;15.75;;;;;;;;;;4954862;28;20042;-79
2022/10/27 07:35:50;;;;;;;30.73;16.35;;;;;;;;;;5005956;28;20037;-79
2022/10/27 07:38:33;;;;;;;31.17;17.20;;;;;;;;;;5018981;28;20032;-79
2022/10/27 07:44:52;;;;;;;26.70;15.55;;;;;;;;;;5022863;28;20487;-79
2022/10/27 07:47:57;;;;;;;35.80;17.35;;;;;;;;;;5019095;28;20044;-77
2022/10/27 07:51:02;;;;;;;;;;;;;;;;;;;;;
2022/10/27 07:53:44;;;;;;;32.15;16.70;;;;;;;;;;4934760;29;20035;-80
2022/10/27 08:08:05;;;;;;;25.08;15.82;;;;;;;;;;5168178;23;20074;-77
2022/10/27 08:17:27;;;;;;;27.20;14.82;;;;;;;;;;4972150;28;20097;-77
2022/10/27 08:20:15;;;;;;;27.65;15.80;;;;;;;;;;4942183;28;20026;-79
2022/10/27 08:22:44;;;;;;;27.83;15.73;;;;;;;;;;4956790;28;20034;-78
2022/10/27 08:25:16;;;;;;;24.80;15.40;;;;;;;;;;4972103;28;20029;-79
2022/10/27 08:28:02;;;;;;;27.10;15.88;;;;;;;;;;4994452;28;20037;-80
2022/10/27 09:26:39;;;;;;;17.65;9.85;;;;;;;;;;5003966;28;20476;-85
2022/10/27 09:29:39;;;;;;;11.95;7.68;;;;;;;;;;4973728;28;20154;-85
2022/10/27 09:32:29;;;;;;;16.73;8.82;;;;;;;;;;4979855;28;20027;-86
2022/10/27 09:35:17;;;;;;;15.60;8.60;;;;;;;;;;5000331;28;20022;-85
2022/10/27 09:38:00;;;;;;;16.58;8.55;;;;;;;;;;5001130;28;20042;-85
2022/10/27 09:40:36;;;;;;;17.75;7.55;;;;;;;;;;5019354;28;20022;-85
2022/10/27 09:43:05;;;;;;;15.48;8.30;;;;;;;;;;5026823;28;20033;-85
2022/10/27 09:45:37;;;;;;;13.95;8.13;;;;;;;;;;5010922;28;20106;-85
2022/10/27 09:48:45;;;;;;;10.95;7.68;;;;;;;;;;5000336;28;20124;-86
2022/10/27 09:51:23;;;;;;;17.55;7.90;;;;;;;;;;5004779;28;20032;-86
2022/10/27 09:54:04;;;;;;;14.05;7.30;;;;;;;;;;4997838;28;20045;-85
2022/10/27 09:56:59;;;;;;;13.82;7.32;;;;;;;;;;5006011;28;20037;-86
2022/10/27 09:59:39;;;;;;;15.55;6.80;;;;;;;;;;4978422;28;20093;-86
2022/10/27 10:02:25;;;;;;;9.15;6.60;;;;;;;;;;4972795;28;20031;-86
2022/10/27 10:08:09;;;;;;;8.82;6.13;;;;;;;;;;5034513;28;20028;-88
2022/10/27 10:10:54;;;;;;;11.15;6.30;;;;;;;;;;5059255;28;20060;-87
2022/10/27 10:13:21;;;;;;;12.23;6.53;;;;;;;;;;5206501;23;20921;-85
2022/10/27 10:18:37;;;;;;;12.10;6.53;;;;;;;;;;5045738;28;20029;-84
2022/10/27 10:21:14;;;;;;;11.82;6.50;;;;;;;;;;5036187;28;20100;-84
2022/10/27 10:24:07;;;;;;;13.38;6.20;;;;;;;;;;5025195;28;20082;-84
2022/10/27 10:29:28;;;;;;;9.43;5.82;;;;;;;;;;5024662;28;20034;-85
2022/10/27 10:32:13;;;;;;;10.50;5.85;;;;;;;;;;5025434;28;20026;-84
2022/10/27 10:34:47;;;;;;;11.23;5.72;;;;;;;;;;5027899;28;20106;-85
2022/10/27 10:37:33;;;;;;;10.40;5.22;;;;;;;;;;5023358;28;20034;-85
2022/10/27 10:40:17;;;;;;;12.38;4.80;;;;;;;;;;5028897;28;20034;-85
2022/10/27 10:43:06;;;;;;;13.00;5.18;;;;;;;;;;5028868;28;20064;-85
2022/10/27 10:45:40;;;;;;;10.98;5.03;;;;;;;;;;5032088;28;20034;-85
2022/10/27 10:48:16;;;;;;;12.73;5.25;;;;;;;;;;5040049;28;20084;-85
2022/10/27 10:50:49;;;;;;;10.88;4.55;;;;;;;;;;5020767;28;20065;-85
2022/10/27 10:53:53;;;;;;;9.23;5.00;;;;;;;;;;5021522;28;20069;-86
2022/10/27 10:56:29;;;;;;;7.22;4.80;;;;;;;;;;5022844;28;20098;-86
2022/10/27 11:05:26;;;;;;;7.50;4.50;;;;;;;;;;4978377;28;20058;-86
2022/10/27 11:11:36;;;;;;;6.55;4.18;;;;;;;;;;4924580;29;20044;-86
2022/10/27 11:17:23;;;;;;;;;;;;;;;;;;;;;
2022/10/27 11:32:33;;;;;;;9.25;4.38;;;;;;;;;;5016309;28;20084;-85
2022/10/27 11:58:59;;;;;;;8.00;3.38;;;;;;;;;;5325758;23;20054;-84
2022/10/27 12:16:20;;;;;;;6.07;3.03;;;;;;;;;;5837207;22;20048;-85
2022/10/27 12:19:00;;;;;;;7.57;3.90;;;;;;;;;;5015058;28;20101;-85
2022/10/27 12:21:45;;;;;;;5.82;3.53;;;;;;;;;;5061364;28;20075;-85
2022/10/27 12:24:33;;;;;;;7.43;3.80;;;;;;;;;;5051224;28;20086;-86
2022/10/27 12:30:24;;;;;;;7.43;3.22;;;;;;;;;;5083642;22;20514;-76
2022/10/27 12:36:28;;;;;;;7.53;3.08;;;;;;;;;;5000256;28;20034;-77
2022/10/27 12:42:52;;;;;;;8.50;2.40;;;;;;;;;;4933337;29;20028;-78
2022/10/27 12:45:36;;;;;;;4.67;2.80;;;;;;;;;;4933057;29;20027;-79
2022/10/27 12:48:43;;;;;;;4.30;2.60;;;;;;;;;;4982338;28;20038;-78
2022/10/27 12:51:38;;;;;;;6.43;3.20;;;;;;;;;;4975821;28;20084;-79
2022/10/27 12:54:47;;;;;;;4.43;3.08;;;;;;;;;;4982323;28;20022;-76
2022/10/27 12:57:49;;;;;;;9.48;2.95;;;;;;;;;;4974345;28;20472;-75
2022/10/27 13:07:12;;;;;;;8.40;3.00;;;;;;;;;;4986639;28;20543;-77
2022/10/27 13:15:36;;;;;;;7.38;2.63;;;;;;;;;;4069740;26;20050;-77
2022/10/27 13:24:41;;;;;;;5.50;2.47;;;;;;;;;;4952020;28;20031;-77
2022/10/27 13:27:22;;;;;;;12.55;3.80;;;;;;;;;;4972547;28;20077;-77
2022/10/27 13:32:44;;;;;;;10.02;4.57;;;;;;;;;;5034815;23;20511;-78
2022/10/27 13:41:47;;;;;;;9.63;2.80;;;;;;;;;;5029725;28;20038;-77
2022/10/27 13:44:41;;;;;;;4.22;1.55;;;;;;;;;;5019136;28;20022;-77
2022/10/27 13:59:35;;;;;;;4.07;2.08;;;;;;;;;;4954007;28;20027;-77
2022/10/27 14:02:15;;;;;;;8.20;1.90;;;;;;;;;;4948744;29;20027;-76
2022/10/27 14:04:41;;;;;;;10.13;2.30;;;;;;;;;;4999858;28;20041;-79
2022/10/27 14:07:12;;;;;;;5.57;1.90;;;;;;;;;;5030005;28;20028;-76
2022/10/27 14:09:47;;;;;;;4.90;2.13;;;;;;;;;;5031610;28;20041;-77
2022/10/27 14:31:06;;;;;;;4.50;1.80;;;;;;;;;;5137635;22;20071;-86
2022/10/27 14:39:03;;;;;;;4.25;1.65;;;;;;;;;;5747719;22;20057;-86
2022/10/27 15:35:17;;;;;;;8.05;2.58;;;;;;;;;;5047243;28;20139;-85
2022/10/27 15:38:24;;;;;;;3.67;1.77;;;;;;;;;;5042064;28;20021;-85
2022/10/27 15:44:41;;;;;;;;;;;;;;;;;;;;;
2022/10/27 15:53:50;;;;;;;4.80;2.35;;;;;;;;;;5091609;22;20095;-78
2022/10/27 16:08:41;;;;;;;2.28;1.73;;;;;;;;;;5052706;28;20547;-77
2022/10/27 16:21:02;;;;;;;8.40;2.60;;;;;;;;;;4971809;28;20089;-78
2022/10/27 16:24:01;;;;;;;6.60;2.70;;;;;;;;;;5026282;22;20163;-78
2022/10/27 16:26:54;;;;;;;8.00;2.88;;;;;;;;;;4974405;28;20113;-78
2022/10/27 16:35:08;;;;;;;;;;;;;;;;;;;;;
2022/10/27 16:38:13;;;;;;;5.55;2.78;;;;;;;;;;5025317;28;20049;-78
2022/10/27 16:47:06;;;;;;;6.28;2.95;;;;;;;;;;5039336;28;20071;-79
2022/10/27 16:49:58;;;;;;;;;;;;;;;;;;;;;
2022/10/27 17:02:11;;;;;;;5.43;3.28;;;;;;;;;;5015190;28;20032;-78
2022/10/27 17:05:26;;;;;;;;;;;;;;;;;;;;;
2022/10/27 17:11:16;;;;;;;6.60;3.33;;;;;;;;;;5023438;28;20443;-78
2022/10/27 17:14:19;;;;;;;4.90;3.10;;;;;;;;;;5013926;28;20032;-78
2022/10/27 17:17:04;;;;;;;5.55;3.42;;;;;;;;;;4933860;29;20052;-78
2022/10/27 17:19:41;;;;;;;8.75;3.92;;;;;;;;;;5034798;28;20018;-78
2022/10/27 17:47:10;;;;;;;12.77;4.95;;;;;;;;;;4950679;28;20088;-77
2022/10/27 17:53:35;;;;;;;;;;;;;;;;;;;;;
2022/10/27 18:02:36;;;;;;;9.15;5.82;;;;;;;;;;4864753;29;20062;-77
2022/10/27 18:05:23;;;;;;;10.85;6.05;;;;;;;;;;5037854;28;20101;-77
2022/10/27 18:08:32;;;;;;;11.18;6.03;;;;;;;;;;5021052;28;20091;-80
2022/10/27 18:11:11;;;;;;;11.25;6.57;;;;;;;;;;5007578;28;20128;-77
2022/10/27 18:13:57;;;;;;;16.13;7.18;;;;;;;;;;5011491;28;20049;-77
2022/10/27 18:16:38;;;;;;;11.50;7.25;;;;;;;;;;5043663;28;20039;-78
2022/10/27 18:19:28;;;;;;;11.65;6.72;;;;;;;;;;5038521;28;20052;-77
2022/10/27 18:24:41;;;;;;;12.23;7.25;;;;;;;;;;5046690;28;20107;-79
2022/10/27 18:27:15;;;;;;;13.15;7.93;;;;;;;;;;5013805;28;20045;-78
2022/10/27 18:29:42;;;;;;;12.68;8.40;;;;;;;;;;5035026;28;20499;-78
2022/10/27 18:32:21;;;;;;;14.73;8.20;;;;;;;;;;5013224;28;20034;-78
2022/10/27 18:34:47;;;;;;;14.32;7.68;;;;;;;;;;5025760;28;20018;-78
2022/10/27 18:37:13;;;;;;;11.98;8.05;;;;;;;;;;5025768;28;20026;-78
2022/10/27 18:39:39;;;;;;;16.13;9.15;;;;;;;;;;5033636;28;20982;-78
2022/10/27 18:42:05;;;;;;;19.13;11.57;;;;;;;;;;5028473;28;20059;-79
2022/10/27 18:44:34;;;;;;;21.98;11.65;;;;;;;;;;5051602;28;20037;-77
2022/10/27 18:47:00;;;;;;;21.90;12.68;;;;;;;;;;5045654;28;20033;-79
2022/10/27 18:52:33;;;;;;;;;;;;;;;;;;;;;
2022/10/27 18:54:59;;;;;;;18.00;11.07;;;;;;;;;;5040040;28;19905;-76
2022/10/27 18:57:25;;;;;;;14.10;10.13;;;;;;;;;;5016652;28;20392;-76
2022/10/27 19:00:17;;;;;;;18.05;11.77;;;;;;;;;;5020948;28;20025;-77
2022/10/27 19:12:14;;;;;;;23.55;13.60;;;;;;;;;;5028670;28;20020;-75
2022/10/27 19:15:29;;;;;;;;;;;;;;;;;;;;;
2022/10/27 19:18:27;;;;;;;21.88;13.52;;;;;;;;;;5035598;28;20018;-78
2022/10/27 19:24:37;;;;;;;;;;;;;;;;;;;;;
2022/10/27 19:27:05;;;;;;;23.70;14.40;;;;;;;;;;4942029;29;20498;-75
2022/10/27 19:29:45;;;;;;;26.15;14.63;;;;;;;;;;4929175;29;20402;-80
2022/10/27 19:32:20;;;;;;;24.67;14.63;;;;;;;;;;4924395;29;20089;-76
2022/10/27 19:34:46;;;;;;;24.10;14.93;;;;;;;;;;4931960;29;20048;-75
2022/10/27 19:37:15;;;;;;;23.65;14.23;;;;;;;;;;4955513;28;20034;-77
2022/10/27 19:39:51;;;;;;;28.88;14.68;;;;;;;;;;5016014;28;20061;-78
2022/10/27 19:45:05;;;;;;;21.20;13.82;;;;;;;;;;5031825;28;20526;-76
2022/10/27 19:47:34;;;;;;;27.63;15.23;;;;;;;;;;5024963;28;20013;-75
2022/10/27 19:50:00;;;;;;;19.17;13.65;;;;;;;;;;5032217;28;20482;-75
2022/10/27 19:52:26;;;;;;;21.83;13.50;;;;;;;;;;5032243;28;20017;-75
2022/10/27 19:54:51;;;;;;;25.52;15.05;;;;;;;;;;5032498;28;20040;-76
2022/10/27 19:57:17;;;;;;;25.52;16.08;;;;;;;;;;5031227;28;20025;-76
2022/10/27 19:59:44;;;;;;;26.05;15.95;;;;;;;;;;5032171;28;20378;-77
2022/10/27 20:02:10;;;;;;;25.55;16.20;;;;;;;;;;5032330;28;20022;-76
2022/10/27 20:04:39;;;;;;;20.77;15.10;;;;;;;;;;5023688;28;20108;-77
2022/10/27 20:07:05;;;;;;;29.52;16.77;;;;;;;;;;5032300;28;20044;-75
2022/10/27 20:09:31;;;;;;;23.27;15.73;;;;;;;;;;5034806;28;20041;-77
2022/10/27 20:11:57;;;;;;;25.63;15.68;;;;;;;;;;5036152;28;20024;-78
2022/10/27 20:14:24;;;;;;;26.95;16.30;;;;;;;;;;5021891;28;20525;-78
2022/10/27 20:16:50;;;;;;;22.33;15.95;;;;;;;;;;5032490;28;20434;-77
2022/10/27 20:19:17;;;;;;;25.50;17.10;;;;;;;;;;5033597;28;20025;-78
2022/10/27 20:21:44;;;;;;;28.67;16.65;;;;;;;;;;5032880;28;20523;-78
2022/10/27 20:24:13;;;;;;;29.63;16.88;;;;;;;;;;5032891;28;20040;-77
2022/10/27 20:26:40;;;;;;;24.90;16.80;;;;;;;;;;5033010;28;20424;-75
2022/10/27 20:29:06;;;;;;;27.65;17.15;;;;;;;;;;5032384;28;20021;-76
2022/10/27 20:31:33;;;;;;;25.98;17.08;;;;;;;;;;5014720;28;20498;-75
2022/10/27 20:33:59;;;;;;;25.02;16.48;;;;;;;;;;5018401;28;20022;-75
2022/10/27 20:36:25;;;;;;;24.35;16.60;;;;;;;;;;5032182;28;20049;-75
2022/10/27 20:38:52;;;;;;;28.88;19.63;;;;;;;;;;5032464;28;20032;-75
2022/10/27 20:41:19;;;;;;;27.67;17.55;;;;;;;;;;5032516;28;20418;-76
2022/10/27 20:43:45;;;;;;;29.60;17.65;;;;;;;;;;5032404;28;20100;-76
2022/10/27 20:46:12;;;;;;;27.27;18.65;;;;;;;;;;5032582;28;20511;-75
2022/10/27 20:48:41;;;;;;;28.83;18.65;;;;;;;;;;5022783;28;20506;-77
2022/10/27 20:51:12;;;;;;;29.50;18.13;;;;;;;;;;5019496;28;20036;-76
2022/10/27 20:53:39;;;;;;;23.65;17.02;;;;;;;;;;5031124;28;20391;-77
2022/10/27 20:56:05;;;;;;;26.23;17.23;;;;;;;;;;5032007;28;20387;-75
2022/10/27 20:58:31;;;;;;;29.10;18.63;;;;;;;;;;5030820;28;20018;-78
2022/10/27 21:01:36;;;;;;;29.98;18.42;;;;;;;;;;5032031;28;20461;-77
2022/10/27 21:04:03;;;;;;;35.90;18.88;;;;;;;;;;4959325;28;20538;-77
2022/10/27 21:06:31;;;;;;;32.08;20.40;;;;;;;;;;5021706;28;20542;-77
2022/10/27 21:08:57;;;;;;;33.03;18.92;;;;;;;;;;5021487;28;20025;-77
2022/10/27 21:11:24;;;;;;;32.50;19.00;;;;;;;;;;5031894;28;20394;-78
2022/10/27 21:13:55;;;;;;;29.50;19.35;;;;;;;;;;5031890;28;20471;-78
2022/10/27 21:16:21;;;;;;;31.05;19.42;;;;;;;;;;5032296;28;20034;-78
2022/10/27 21:18:54;;;;;;;36.47;20.67;;;;;;;;;;5031079;28;20120;-78
2022/10/27 21:21:23;;;;;;;35.97;20.38;;;;;;;;;;5032132;28;20025;-77
2022/10/27 21:23:49;;;;;;;36.15;20.95;;;;;;;;;;5016613;28;20017;-77
2022/10/27 21:26:16;;;;;;;28.95;19.95;;;;;;;;;;5031942;28;20032;-76
2022/10/27 21:28:42;;;;;;;31.40;20.63;;;;;;;;;;5031492;28;20389;-77
2022/10/27 21:31:10;;;;;;;35.75;20.83;;;;;;;;;;5031729;28;20029;-77
2022/10/27 21:33:36;;;;;;;31.25;20.83;;;;;;;;;;5031266;28;20068;-78
2022/10/27 21:36:11;;;;;;;30.50;19.80;;;;;;;;;;5018280;28;20033;-78
2022/10/27 21:38:38;;;;;;;35.83;20.85;;;;;;;;;;5030752;28;20114;-77
2022/10/27 21:41:07;;;;;;;37.20;19.92;;;;;;;;;;5018999;28;20091;-77
2022/10/27 21:43:34;;;;;;;33.88;20.58;;;;;;;;;;5028241;28;20029;-74
2022/10/27 21:46:01;;;;;;;38.17;22.00;;;;;;;;;;5031186;28;20013;-74
2022/10/27 21:48:27;;;;;;;37.85;20.73;;;;;;;;;;5030127;28;20014;-75
2022/10/27 21:50:53;;;;;;;33.42;20.48;;;;;;;;;;5030985;28;20026;-75
2022/10/27 21:53:20;;;;;;;29.20;19.60;;;;;;;;;;5030342;28;20018;-74
2022/10/27 21:56:03;;;;;;;34.17;20.80;;;;;;;;;;5030206;28;20059;-76
2022/10/27 21:58:30;;;;;;;29.95;20.50;;;;;;;;;;5027557;28;20402;-77
2022/10/27 22:01:11;;;;;;;38.85;22.08;;;;;;;;;;5030509;28;20021;-74
2022/10/27 22:03:37;;;;;;;;;;;;;;;;;;5028980;28;20108;-75
2022/10/27 22:06:04;;;;;;;38.85;22.83;;;;;;;;;;5030515;28;20446;-78
2022/10/27 22:08:30;;;;;;;34.10;22.75;;;;;;;;;;5028668;28;20033;-75
2022/10/27 22:11:02;;;;;;;36.10;22.42;;;;;;;;;;5029069;28;20026;-75
2022/10/27 22:13:28;;;;;;;35.83;22.50;;;;;;;;;;5012940;28;20014;-75
2022/10/27 22:15:54;;;;;;;43.88;24.60;;;;;;;;;;5024360;28;20686;-77
2022/10/27 22:18:20;;;;;;;34.45;24.27;;;;;;;;;;5020772;28;20029;-76
2022/10/27 22:20:46;;;;;;;34.55;23.02;;;;;;;;;;5028897;28;20439;-77
2022/10/27 22:23:12;;;;;;;39.88;24.90;;;;;;;;;;5013655;28;20031;-77
2022/10/27 22:25:39;;;;;;;39.03;22.48;;;;;;;;;;5030119;28;20025;-77
2022/10/27 22:28:05;;;;;;;38.20;25.23;;;;;;;;;;5029829;28;20108;-76
2022/10/27 22:30:31;;;;;;;35.22;23.15;;;;;;;;;;5030690;28;20427;-77
2022/10/27 22:32:59;;;;;;;39.22;25.85;;;;;;;;;;5030611;28;20031;-74
2022/10/27 22:35:25;;;;;;;46.90;26.55;;;;;;;;;;5026114;28;20060;-75
2022/10/27 22:37:52;;;;;;;42.88;26.95;;;;;;;;;;5030123;28;20053;-74
2022/10/27 22:40:18;;;;;;;38.38;25.63;;;;;;;;;;5030561;28;20095;-75
2022/10/27 22:42:44;;;;;;;43.28;26.85;;;;;;;;;;5030904;28;20537;-76
2022/10/27 22:45:10;;;;;;;38.92;24.98;;;;;;;;;;5030281;28;20030;-76
2022/10/27 22:47:36;;;;;;;38.72;26.52;;;;;;;;;;5029631;28;20029;-75
2022/10/27 22:50:02;;;;;;;36.45;25.85;;;;;;;;;;5030383;28;20166;-75
2022/10/27 22:52:28;;;;;;;43.45;27.40;;;;;;;;;;5030528;28;20021;-75
2022/10/27 22:54:54;;;;;;;41.25;27.05;;;;;;;;;;5030378;28;20052;-75
2022/10/27 22:57:20;;;;;;;42.22;25.92;;;;;;;;;;5029613;28;20471;-74
2022/10/27 22:59:46;;;;;;;40.17;24.70;;;;;;;;;;5030254;28;20017;-76
2022/10/27 23:02:12;;;;;;;44.17;25.42;;;;;;;;;;5030217;28;20033;-76
2022/10/27 23:04:38;;;;;;;42.53;26.58;;;;;;;;;;5030412;28;20096;-74
2022/10/27 23:07:04;;;;;;;46.10;25.42;;;;;;;;;;5023152;28;20025;-72
2022/10/27 23:09:30;;;;;;;44.50;26.20;;;;;;;;;;5030190;28;20025;-75
2022/10/27 23:11:56;;;;;;;42.55;27.92;;;;;;;;;;5030053;28;20442;-75
2022/10/27 23:14:22;;;;;;;44.85;28.30;;;;;;;;;;5019578;28;20033;-75
2022/10/27 23:16:59;;;;;;;46.55;29.95;;;;;;;;;;5054574;23;20047;-81
2022/10/27 23:19:31;;;;;;;49.40;28.80;;;;;;;;;;5023948;28;20041;-82
2022/10/27 23:22:00;;;;;;;45.03;28.52;;;;;;;;;;5032764;28;20024;-83
2022/10/27 23:24:32;;;;;;;42.00;27.98;;;;;;;;;;5043152;28;20036;-83
2022/10/27 23:27:06;;;;;;;47.75;28.15;;;;;;;;;;5028623;28;20040;-82
2022/10/27 23:29:45;;;;;;;;;;;;;;;;;;;;;
2022/10/27 23:32:23;;;;;;;38.80;26.48;;;;;;;;;;4994375;28;20108;-83
2022/10/27 23:34:55;;;;;;;35.92;23.52;;;;;;;;;;5011193;28;20149;-84